sensor_id;sensor_type;location;lat;lon;timestamp;P1;durP1;ratioP1;P2;durP2;ratioP2
13002;SDS011;66869;57.706;11.922;2023-04-22T00:02:03;1.67;;;0.50;;
13002;SDS011;66869;57.706;11.922;2023-04-22T00:04:28;0.40;;;0.40;;
13002;SDS011;66869;57.706;11.922;2023-04-22T00:06:54;0.60;;;0.32;;
13002;SDS011;66869;57.706;11.922;2023-04-22T00:09:19;0.47;;;0.47;;
13002;SDS011;66869;57.706;11.922;2023-04-22T00:11:44;1.00;;;0.80;;
13002;SDS011;66869;57.706;11.922;2023-04-22T00:14:10;0.60;;;0.60;;
13002;SDS011;66869;57.706;11.922;2023-04-22T00:16:35;0.60;;;0.60;;
13002;SDS011;66869;57.706;11.922;2023-04-22T00:19:00;0.30;;;0.30;;
13002;SDS011;66869;57.706;11.922;2023-04-22T00:21:25;0.88;;;0.77;;
13002;SDS011;66869;57.706;11.922;2023-04-22T00:23:51;0.98;;;0.60;;
13002;SDS011;66869;57.706;11.922;2023-04-22T00:26:16;0.47;;;0.47;;
13002;SDS011;66869;57.706;11.922;2023-04-22T00:28:41;1.95;;;0.50;;
13002;SDS011;66869;57.706;11.922;2023-04-22T00:31:07;0.50;;;0.50;;
13002;SDS011;66869;57.706;11.922;2023-04-22T00:33:32;0.45;;;0.32;;
13002;SDS011;66869;57.706;11.922;2023-04-22T00:35:57;0.50;;;0.50;;
13002;SDS011;66869;57.706;11.922;2023-04-22T00:38:23;0.93;;;0.53;;
13002;SDS011;66869;57.706;11.922;2023-04-22T00:40:48;0.40;;;0.40;;
13002;SDS011;66869;57.706;11.922;2023-04-22T00:43:14;0.40;;;0.40;;
13002;SDS011;66869;57.706;11.922;2023-04-22T00:45:40;0.50;;;0.50;;
13002;SDS011;66869;57.706;11.922;2023-04-22T00:48:06;0.35;;;0.35;;
13002;SDS011;66869;57.706;11.922;2023-04-22T00:50:31;0.57;;;0.47;;
13002;SDS011;66869;57.706;11.922;2023-04-22T00:52:56;0.40;;;0.40;;
13002;SDS011;66869;57.706;11.922;2023-04-22T00:55:22;0.80;;;0.40;;
13002;SDS011;66869;57.706;11.922;2023-04-22T00:57:47;0.65;;;0.50;;
13002;SDS011;66869;57.706;11.922;2023-04-22T01:00:14;0.43;;;0.40;;
13002;SDS011;66869;57.706;11.922;2023-04-22T01:02:40;0.50;;;0.50;;
13002;SDS011;66869;57.706;11.922;2023-04-22T01:05:06;0.40;;;0.40;;
13002;SDS011;66869;57.706;11.922;2023-04-22T01:07:33;0.50;;;0.50;;
13002;SDS011;66869;57.706;11.922;2023-04-22T01:09:59;0.40;;;0.40;;
13002;SDS011;66869;57.706;11.922;2023-04-22T01:12:24;0.40;;;0.35;;
13002;SDS011;66869;57.706;11.922;2023-04-22T01:14:49;0.32;;;0.32;;
13002;SDS011;66869;57.706;11.922;2023-04-22T01:17:15;0.75;;;0.45;;
13002;SDS011;66869;57.706;11.922;2023-04-22T01:19:41;0.20;;;0.20;;
13002;SDS011;66869;57.706;11.922;2023-04-22T01:22:07;0.68;;;0.50;;
13002;SDS011;66869;57.706;11.922;2023-04-22T01:24:34;0.43;;;0.35;;
13002;SDS011;66869;57.706;11.922;2023-04-22T01:26:59;0.63;;;0.50;;
13002;SDS011;66869;57.706;11.922;2023-04-22T01:29:25;1.85;;;0.60;;
13002;SDS011;66869;57.706;11.922;2023-04-22T01:31:51;0.90;;;0.50;;
13002;SDS011;66869;57.706;11.922;2023-04-22T01:34:16;0.50;;;0.30;;
13002;SDS011;66869;57.706;11.922;2023-04-22T01:36:42;0.95;;;0.35;;
13002;SDS011;66869;57.706;11.922;2023-04-22T01:39:08;2.22;;;0.40;;
13002;SDS011;66869;57.706;11.922;2023-04-22T01:41:33;0.30;;;0.30;;
13002;SDS011;66869;57.706;11.922;2023-04-22T01:43:59;0.93;;;0.50;;
13002;SDS011;66869;57.706;11.922;2023-04-22T01:46:27;0.55;;;0.40;;
13002;SDS011;66869;57.706;11.922;2023-04-22T01:48:52;0.40;;;0.40;;
13002;SDS011;66869;57.706;11.922;2023-04-22T01:51:17;0.40;;;0.40;;
13002;SDS011;66869;57.706;11.922;2023-04-22T01:53:47;1.35;;;0.40;;
13002;SDS011;66869;57.706;11.922;2023-04-22T01:56:12;0.40;;;0.40;;
13002;SDS011;66869;57.706;11.922;2023-04-22T01:58:38;0.40;;;0.40;;
13002;SDS011;66869;57.706;11.922;2023-04-22T02:01:04;0.38;;;0.38;;
13002;SDS011;66869;57.706;11.922;2023-04-22T02:03:30;0.88;;;0.50;;
13002;SDS011;66869;57.706;11.922;2023-04-22T02:05:55;0.40;;;0.40;;
13002;SDS011;66869;57.706;11.922;2023-04-22T02:08:20;0.30;;;0.30;;
13002;SDS011;66869;57.706;11.922;2023-04-22T02:10:46;0.40;;;0.40;;
13002;SDS011;66869;57.706;11.922;2023-04-22T02:13:11;0.85;;;0.52;;
13002;SDS011;66869;57.706;11.922;2023-04-22T02:15:36;0.60;;;0.57;;
13002;SDS011;66869;57.706;11.922;2023-04-22T02:18:03;0.30;;;0.30;;
13002;SDS011;66869;57.706;11.922;2023-04-22T02:20:28;0.50;;;0.50;;
13002;SDS011;66869;57.706;11.922;2023-04-22T02:22:53;1.95;;;0.40;;
13002;SDS011;66869;57.706;11.922;2023-04-22T02:25:19;0.43;;;0.43;;
13002;SDS011;66869;57.706;11.922;2023-04-22T02:27:44;0.40;;;0.40;;
13002;SDS011;66869;57.706;11.922;2023-04-22T02:30:10;0.73;;;0.40;;
13002;SDS011;66869;57.706;11.922;2023-04-22T02:32:35;0.40;;;0.40;;
13002;SDS011;66869;57.706;11.922;2023-04-22T02:35:02;0.82;;;0.40;;
13002;SDS011;66869;57.706;11.922;2023-04-22T02:37:29;0.50;;;0.40;;
13002;SDS011;66869;57.706;11.922;2023-04-22T02:39:54;0.30;;;0.30;;
13002;SDS011;66869;57.706;11.922;2023-04-22T02:42:20;0.40;;;0.40;;
13002;SDS011;66869;57.706;11.922;2023-04-22T02:44:45;0.40;;;0.40;;
13002;SDS011;66869;57.706;11.922;2023-04-22T02:47:10;0.47;;;0.47;;
13002;SDS011;66869;57.706;11.922;2023-04-22T02:49:35;0.50;;;0.50;;
13002;SDS011;66869;57.706;11.922;2023-04-22T02:52:01;0.70;;;0.40;;
13002;SDS011;66869;57.706;11.922;2023-04-22T02:54:26;0.50;;;0.50;;
13002;SDS011;66869;57.706;11.922;2023-04-22T02:56:51;0.40;;;0.40;;
13002;SDS011;66869;57.706;11.922;2023-04-22T02:59:17;0.43;;;0.40;;
13002;SDS011;66869;57.706;11.922;2023-04-22T03:01:42;0.50;;;0.50;;
13002;SDS011;66869;57.706;11.922;2023-04-22T03:04:07;0.73;;;0.52;;
13002;SDS011;66869;57.706;11.922;2023-04-22T03:06:32;0.40;;;0.40;;
13002;SDS011;66869;57.706;11.922;2023-04-22T03:08:58;0.55;;;0.55;;
13002;SDS011;66869;57.706;11.922;2023-04-22T03:11:23;0.50;;;0.50;;
13002;SDS011;66869;57.706;11.922;2023-04-22T03:13:48;0.65;;;0.40;;
13002;SDS011;66869;57.706;11.922;2023-04-22T03:16:15;0.50;;;0.50;;
13002;SDS011;66869;57.706;11.922;2023-04-22T03:18:40;0.50;;;0.50;;
13002;SDS011;66869;57.706;11.922;2023-04-22T03:21:06;0.30;;;0.30;;
13002;SDS011;66869;57.706;11.922;2023-04-22T03:23:31;0.40;;;0.40;;
13002;SDS011;66869;57.706;11.922;2023-04-22T03:25:56;0.40;;;0.40;;
13002;SDS011;66869;57.706;11.922;2023-04-22T03:28:22;0.65;;;0.50;;
13002;SDS011;66869;57.706;11.922;2023-04-22T03:30:47;0.30;;;0.30;;
13002;SDS011;66869;57.706;11.922;2023-04-22T03:33:12;0.50;;;0.50;;
13002;SDS011;66869;57.706;11.922;2023-04-22T03:35:37;2.22;;;0.60;;
13002;SDS011;66869;57.706;11.922;2023-04-22T03:38:03;1.67;;;0.40;;
13002;SDS011;66869;57.706;11.922;2023-04-22T03:40:28;0.55;;;0.50;;
13002;SDS011;66869;57.706;11.922;2023-04-22T03:42:53;0.45;;;0.45;;
13002;SDS011;66869;57.706;11.922;2023-04-22T03:45:19;0.88;;;0.50;;
13002;SDS011;66869;57.706;11.922;2023-04-22T03:47:44;1.20;;;0.43;;
13002;SDS011;66869;57.706;11.922;2023-04-22T03:50:09;0.60;;;0.60;;
13002;SDS011;66869;57.706;11.922;2023-04-22T03:52:35;0.57;;;0.50;;
13002;SDS011;66869;57.706;11.922;2023-04-22T03:55:00;0.40;;;0.40;;
13002;SDS011;66869;57.706;11.922;2023-04-22T03:57:25;1.17;;;0.45;;
13002;SDS011;66869;57.706;11.922;2023-04-22T03:59:50;0.57;;;0.50;;
13002;SDS011;66869;57.706;11.922;2023-04-22T04:02:16;0.52;;;0.40;;
13002;SDS011;66869;57.706;11.922;2023-04-22T04:04:41;1.25;;;0.40;;
13002;SDS011;66869;57.706;11.922;2023-04-22T04:07:07;0.50;;;0.45;;
13002;SDS011;66869;57.706;11.922;2023-04-22T04:09:32;0.30;;;0.30;;
13002;SDS011;66869;57.706;11.922;2023-04-22T04:11:57;0.40;;;0.40;;
13002;SDS011;66869;57.706;11.922;2023-04-22T04:14:23;0.73;;;0.40;;
13002;SDS011;66869;57.706;11.922;2023-04-22T04:16:48;1.38;;;0.50;;
13002;SDS011;66869;57.706;11.922;2023-04-22T04:19:13;0.30;;;0.30;;
13002;SDS011;66869;57.706;11.922;2023-04-22T04:21:38;0.40;;;0.40;;
13002;SDS011;66869;57.706;11.922;2023-04-22T04:24:04;0.45;;;0.45;;
13002;SDS011;66869;57.706;11.922;2023-04-22T04:26:30;0.30;;;0.30;;
13002;SDS011;66869;57.706;11.922;2023-04-22T04:28:56;0.80;;;0.47;;
13002;SDS011;66869;57.706;11.922;2023-04-22T04:31:21;0.50;;;0.45;;
13002;SDS011;66869;57.706;11.922;2023-04-22T04:33:48;0.38;;;0.38;;
13002;SDS011;66869;57.706;11.922;2023-04-22T04:36:14;0.50;;;0.50;;
13002;SDS011;66869;57.706;11.922;2023-04-22T04:38:39;0.40;;;0.40;;
13002;SDS011;66869;57.706;11.922;2023-04-22T04:41:04;0.40;;;0.40;;
13002;SDS011;66869;57.706;11.922;2023-04-22T04:43:32;0.40;;;0.40;;
13002;SDS011;66869;57.706;11.922;2023-04-22T04:45:57;0.57;;;0.47;;
13002;SDS011;66869;57.706;11.922;2023-04-22T04:48:23;0.52;;;0.40;;
13002;SDS011;66869;57.706;11.922;2023-04-22T04:50:51;0.57;;;0.38;;
13002;SDS011;66869;57.706;11.922;2023-04-22T04:53:18;0.50;;;0.50;;
13002;SDS011;66869;57.706;11.922;2023-04-22T04:55:44;0.47;;;0.43;;
13002;SDS011;66869;57.706;11.922;2023-04-22T04:58:09;0.98;;;0.40;;
13002;SDS011;66869;57.706;11.922;2023-04-22T05:00:35;0.40;;;0.40;;
13002;SDS011;66869;57.706;11.922;2023-04-22T05:03:00;0.50;;;0.50;;
13002;SDS011;66869;57.706;11.922;2023-04-22T05:05:25;0.40;;;0.30;;
13002;SDS011;66869;57.706;11.922;2023-04-22T05:07:50;0.65;;;0.50;;
13002;SDS011;66869;57.706;11.922;2023-04-22T05:10:17;1.00;;;0.50;;
13002;SDS011;66869;57.706;11.922;2023-04-22T05:12:43;0.75;;;0.30;;
13002;SDS011;66869;57.706;11.922;2023-04-22T05:15:10;0.50;;;0.50;;
13002;SDS011;66869;57.706;11.922;2023-04-22T05:17:35;0.40;;;0.40;;
13002;SDS011;66869;57.706;11.922;2023-04-22T05:20:06;0.50;;;0.50;;
13002;SDS011;66869;57.706;11.922;2023-04-22T05:22:33;0.30;;;0.30;;
13002;SDS011;66869;57.706;11.922;2023-04-22T05:24:58;0.50;;;0.50;;
13002;SDS011;66869;57.706;11.922;2023-04-22T05:27:23;0.70;;;0.50;;
13002;SDS011;66869;57.706;11.922;2023-04-22T05:29:49;0.80;;;0.60;;
13002;SDS011;66869;57.706;11.922;2023-04-22T05:32:14;0.68;;;0.60;;
13002;SDS011;66869;57.706;11.922;2023-04-22T05:34:40;0.57;;;0.50;;
13002;SDS011;66869;57.706;11.922;2023-04-22T05:37:05;1.35;;;0.40;;
13002;SDS011;66869;57.706;11.922;2023-04-22T05:39:30;0.95;;;0.55;;
13002;SDS011;66869;57.706;11.922;2023-04-22T05:41:56;0.43;;;0.43;;
13002;SDS011;66869;57.706;11.922;2023-04-22T05:44:21;1.65;;;0.50;;
13002;SDS011;66869;57.706;11.922;2023-04-22T05:46:46;1.10;;;0.50;;
13002;SDS011;66869;57.706;11.922;2023-04-22T05:49:12;0.75;;;0.68;;
13002;SDS011;66869;57.706;11.922;2023-04-22T05:51:37;0.50;;;0.50;;
13002;SDS011;66869;57.706;11.922;2023-04-22T05:54:02;0.40;;;0.40;;
13002;SDS011;66869;57.706;11.922;2023-04-22T05:56:27;0.65;;;0.40;;
13002;SDS011;66869;57.706;11.922;2023-04-22T05:58:53;0.75;;;0.60;;
13002;SDS011;66869;57.706;11.922;2023-04-22T06:01:18;0.50;;;0.50;;
13002;SDS011;66869;57.706;11.922;2023-04-22T06:03:43;0.75;;;0.47;;
13002;SDS011;66869;57.706;11.922;2023-04-22T06:06:08;2.42;;;1.52;;
13002;SDS011;66869;57.706;11.922;2023-04-22T06:08:34;1.40;;;1.20;;
13002;SDS011;66869;57.706;11.922;2023-04-22T06:10:59;1.15;;;0.50;;
13002;SDS011;66869;57.706;11.922;2023-04-22T06:13:25;0.70;;;0.70;;
13002;SDS011;66869;57.706;11.922;2023-04-22T06:15:50;1.08;;;0.80;;
13002;SDS011;66869;57.706;11.922;2023-04-22T06:18:15;0.63;;;0.63;;
13002;SDS011;66869;57.706;11.922;2023-04-22T06:20:41;0.82;;;0.70;;
13002;SDS011;66869;57.706;11.922;2023-04-22T06:23:06;0.60;;;0.60;;
13002;SDS011;66869;57.706;11.922;2023-04-22T06:25:31;0.60;;;0.57;;
13002;SDS011;66869;57.706;11.922;2023-04-22T06:27:57;0.60;;;0.60;;
13002;SDS011;66869;57.706;11.922;2023-04-22T06:30:22;0.60;;;0.60;;
13002;SDS011;66869;57.706;11.922;2023-04-22T06:32:48;0.57;;;0.57;;
13002;SDS011;66869;57.706;11.922;2023-04-22T06:35:13;0.60;;;0.60;;
13002;SDS011;66869;57.706;11.922;2023-04-22T06:37:38;0.55;;;0.55;;
13002;SDS011;66869;57.706;11.922;2023-04-22T06:40:04;0.45;;;0.45;;
13002;SDS011;66869;57.706;11.922;2023-04-22T06:42:29;0.63;;;0.60;;
13002;SDS011;66869;57.706;11.922;2023-04-22T06:44:54;0.95;;;0.50;;
13002;SDS011;66869;57.706;11.922;2023-04-22T06:47:20;0.50;;;0.50;;
13002;SDS011;66869;57.706;11.922;2023-04-22T06:49:45;0.95;;;0.60;;
13002;SDS011;66869;57.706;11.922;2023-04-22T06:52:10;0.50;;;0.50;;
13002;SDS011;66869;57.706;11.922;2023-04-22T06:54:36;0.43;;;0.43;;
13002;SDS011;66869;57.706;11.922;2023-04-22T06:57:02;0.52;;;0.50;;
13002;SDS011;66869;57.706;11.922;2023-04-22T06:59:27;0.60;;;0.60;;
13002;SDS011;66869;57.706;11.922;2023-04-22T07:01:52;2.70;;;0.35;;
13002;SDS011;66869;57.706;11.922;2023-04-22T07:04:18;0.75;;;0.60;;
13002;SDS011;66869;57.706;11.922;2023-04-22T07:06:43;0.65;;;0.60;;
13002;SDS011;66869;57.706;11.922;2023-04-22T07:09:09;14.77;;;3.90;;
13002;SDS011;66869;57.706;11.922;2023-04-22T07:11:34;20.08;;;5.35;;
13002;SDS011;66869;57.706;11.922;2023-04-22T07:13:59;26.52;;;6.20;;
13002;SDS011;66869;57.706;11.922;2023-04-22T07:16:25;28.63;;;6.78;;
13002;SDS011;66869;57.706;11.922;2023-04-22T07:18:50;21.80;;;5.38;;
13002;SDS011;66869;57.706;11.922;2023-04-22T07:21:15;38.58;;;9.45;;
13002;SDS011;66869;57.706;11.922;2023-04-22T07:23:41;36.65;;;9.52;;
13002;SDS011;66869;57.706;11.922;2023-04-22T07:26:06;39.17;;;9.00;;
13002;SDS011;66869;57.706;11.922;2023-04-22T07:28:31;26.50;;;7.18;;
13002;SDS011;66869;57.706;11.922;2023-04-22T07:30:56;26.67;;;6.85;;
13002;SDS011;66869;57.706;11.922;2023-04-22T07:33:22;25.40;;;5.90;;
13002;SDS011;66869;57.706;11.922;2023-04-22T07:35:47;23.23;;;5.45;;
13002;SDS011;66869;57.706;11.922;2023-04-22T07:38:12;19.10;;;4.80;;
13002;SDS011;66869;57.706;11.922;2023-04-22T07:40:38;18.55;;;4.85;;
13002;SDS011;66869;57.706;11.922;2023-04-22T07:43:03;16.83;;;4.40;;
13002;SDS011;66869;57.706;11.922;2023-04-22T07:45:30;13.15;;;4.18;;
13002;SDS011;66869;57.706;11.922;2023-04-22T07:47:55;16.15;;;3.72;;
13002;SDS011;66869;57.706;11.922;2023-04-22T07:50:20;9.00;;;2.65;;
13002;SDS011;66869;57.706;11.922;2023-04-22T07:52:46;9.80;;;2.67;;
13002;SDS011;66869;57.706;11.922;2023-04-22T07:55:11;10.05;;;2.60;;
13002;SDS011;66869;57.706;11.922;2023-04-22T07:57:36;9.25;;;2.83;;
13002;SDS011;66869;57.706;11.922;2023-04-22T08:00:06;9.38;;;2.47;;
13002;SDS011;66869;57.706;11.922;2023-04-22T08:02:31;4.93;;;1.98;;
13002;SDS011;66869;57.706;11.922;2023-04-22T08:04:57;9.00;;;2.67;;
13002;SDS011;66869;57.706;11.922;2023-04-22T08:07:22;6.15;;;1.75;;
13002;SDS011;66869;57.706;11.922;2023-04-22T08:09:47;5.28;;;1.80;;
13002;SDS011;66869;57.706;11.922;2023-04-22T08:12:13;5.50;;;1.90;;
13002;SDS011;66869;57.706;11.922;2023-04-22T08:14:38;4.80;;;1.60;;
13002;SDS011;66869;57.706;11.922;2023-04-22T08:17:03;6.03;;;1.92;;
13002;SDS011;66869;57.706;11.922;2023-04-22T08:19:29;4.88;;;1.50;;
13002;SDS011;66869;57.706;11.922;2023-04-22T08:21:54;6.18;;;1.70;;
13002;SDS011;66869;57.706;11.922;2023-04-22T08:24:20;6.40;;;1.67;;
13002;SDS011;66869;57.706;11.922;2023-04-22T08:26:45;3.83;;;1.52;;
13002;SDS011;66869;57.706;11.922;2023-04-22T08:29:10;4.05;;;0.98;;
13002;SDS011;66869;57.706;11.922;2023-04-22T08:31:36;2.08;;;1.08;;
13002;SDS011;66869;57.706;11.922;2023-04-22T08:34:01;2.47;;;0.98;;
13002;SDS011;66869;57.706;11.922;2023-04-22T08:36:26;2.13;;;0.85;;
13002;SDS011;66869;57.706;11.922;2023-04-22T08:38:52;3.78;;;1.00;;
13002;SDS011;66869;57.706;11.922;2023-04-22T08:41:18;3.10;;;1.05;;
13002;SDS011;66869;57.706;11.922;2023-04-22T08:43:45;1.55;;;1.00;;
13002;SDS011;66869;57.706;11.922;2023-04-22T08:46:11;2.53;;;0.82;;
13002;SDS011;66869;57.706;11.922;2023-04-22T08:48:36;1.80;;;1.00;;
13002;SDS011;66869;57.706;11.922;2023-04-22T08:51:02;1.90;;;0.70;;
13002;SDS011;66869;57.706;11.922;2023-04-22T08:53:27;1.63;;;0.73;;
13002;SDS011;66869;57.706;11.922;2023-04-22T08:55:52;2.30;;;0.80;;
13002;SDS011;66869;57.706;11.922;2023-04-22T08:58:19;0.88;;;0.70;;
13002;SDS011;66869;57.706;11.922;2023-04-22T09:00:45;1.05;;;0.80;;
13002;SDS011;66869;57.706;11.922;2023-04-22T09:03:12;2.55;;;0.80;;
13002;SDS011;66869;57.706;11.922;2023-04-22T09:05:38;0.85;;;0.70;;
13002;SDS011;66869;57.706;11.922;2023-04-22T09:08:04;1.48;;;0.90;;
13002;SDS011;66869;57.706;11.922;2023-04-22T09:10:31;1.73;;;0.80;;
13002;SDS011;66869;57.706;11.922;2023-04-22T09:12:57;2.10;;;0.80;;
13002;SDS011;66869;57.706;11.922;2023-04-22T09:15:23;1.23;;;0.80;;
13002;SDS011;66869;57.706;11.922;2023-04-22T09:17:49;1.42;;;0.70;;
13002;SDS011;66869;57.706;11.922;2023-04-22T09:20:15;1.58;;;0.90;;
13002;SDS011;66869;57.706;11.922;2023-04-22T09:22:42;2.13;;;0.75;;
13002;SDS011;66869;57.706;11.922;2023-04-22T09:27:40;1.35;;;0.60;;
13002;SDS011;66869;57.706;11.922;2023-04-22T09:30:06;1.50;;;0.63;;
13002;SDS011;66869;57.706;11.922;2023-04-22T09:32:32;0.60;;;0.60;;
13002;SDS011;66869;57.706;11.922;2023-04-22T09:34:57;0.80;;;0.80;;
13002;SDS011;66869;57.706;11.922;2023-04-22T09:37:25;0.50;;;0.50;;
13002;SDS011;66869;57.706;11.922;2023-04-22T09:39:53;0.82;;;0.50;;
13002;SDS011;66869;57.706;11.922;2023-04-22T09:42:19;1.38;;;0.70;;
13002;SDS011;66869;57.706;11.922;2023-04-22T09:44:47;1.27;;;0.68;;
13002;SDS011;66869;57.706;11.922;2023-04-22T09:47:16;0.65;;;0.50;;
13002;SDS011;66869;57.706;11.922;2023-04-22T09:49:44;1.25;;;0.70;;
13002;SDS011;66869;57.706;11.922;2023-04-22T09:52:10;0.60;;;0.50;;
13002;SDS011;66869;57.706;11.922;2023-04-22T09:54:36;0.88;;;0.60;;
13002;SDS011;66869;57.706;11.922;2023-04-22T09:57:01;1.13;;;0.68;;
13002;SDS011;66869;57.706;11.922;2023-04-22T09:59:28;0.98;;;0.60;;
13002;SDS011;66869;57.706;11.922;2023-04-22T10:01:55;0.57;;;0.50;;
13002;SDS011;66869;57.706;11.922;2023-04-22T10:04:20;0.57;;;0.57;;
13002;SDS011;66869;57.706;11.922;2023-04-22T10:06:47;0.70;;;0.60;;
13002;SDS011;66869;57.706;11.922;2023-04-22T10:09:13;0.70;;;0.60;;
13002;SDS011;66869;57.706;11.922;2023-04-22T10:11:39;0.60;;;0.60;;
13002;SDS011;66869;57.706;11.922;2023-04-22T10:14:05;0.47;;;0.47;;
13002;SDS011;66869;57.706;11.922;2023-04-22T10:16:31;0.77;;;0.60;;
13002;SDS011;66869;57.706;11.922;2023-04-22T10:18:58;1.10;;;0.70;;
13002;SDS011;66869;57.706;11.922;2023-04-22T10:21:24;0.60;;;0.60;;
13002;SDS011;66869;57.706;11.922;2023-04-22T10:23:50;0.65;;;0.50;;
13002;SDS011;66869;57.706;11.922;2023-04-22T10:28:59;0.50;;;0.50;;
13002;SDS011;66869;57.706;11.922;2023-04-22T10:31:25;0.80;;;0.60;;
13002;SDS011;66869;57.706;11.922;2023-04-22T10:33:50;0.50;;;0.50;;
13002;SDS011;66869;57.706;11.922;2023-04-22T10:36:32;0.70;;;0.70;;
13002;SDS011;66869;57.706;11.922;2023-04-22T10:41:23;1.07;;;0.60;;
13002;SDS011;66869;57.706;11.922;2023-04-22T10:43:59;0.70;;;0.70;;
13002;SDS011;66869;57.706;11.922;2023-04-22T10:49:13;0.60;;;0.60;;
13002;SDS011;66869;57.706;11.922;2023-04-22T10:51:42;0.60;;;0.60;;
13002;SDS011;66869;57.706;11.922;2023-04-22T10:59:44;0.77;;;0.60;;
13002;SDS011;66869;57.706;11.922;2023-04-22T11:02:10;0.88;;;0.75;;
13002;SDS011;66869;57.706;11.922;2023-04-22T11:04:35;0.70;;;0.55;;
13002;SDS011;66869;57.706;11.922;2023-04-22T11:17:30;0.70;;;0.70;;
13002;SDS011;66869;57.706;11.922;2023-04-22T11:19:56;0.60;;;0.60;;
13002;SDS011;66869;57.706;11.922;2023-04-22T11:22:24;0.60;;;0.60;;
13002;SDS011;66869;57.706;11.922;2023-04-22T11:24:56;0.77;;;0.77;;
13002;SDS011;66869;57.706;11.922;2023-04-22T11:27:21;0.70;;;0.60;;
13002;SDS011;66869;57.706;11.922;2023-04-22T11:30:10;0.43;;;0.30;;
13002;SDS011;66869;57.706;11.922;2023-04-22T11:32:36;0.50;;;0.50;;
13002;SDS011;66869;57.706;11.922;2023-04-22T11:35:03;0.50;;;0.50;;
13002;SDS011;66869;57.706;11.922;2023-04-22T11:37:28;0.55;;;0.55;;
13002;SDS011;66869;57.706;11.922;2023-04-22T11:39:58;0.50;;;0.50;;
13002;SDS011;66869;57.706;11.922;2023-04-22T11:42:23;0.45;;;0.45;;
13002;SDS011;66869;57.706;11.922;2023-04-22T11:44:49;0.50;;;0.50;;
13002;SDS011;66869;57.706;11.922;2023-04-22T11:47:14;0.43;;;0.43;;
13002;SDS011;66869;57.706;11.922;2023-04-22T11:49:40;0.50;;;0.50;;
13002;SDS011;66869;57.706;11.922;2023-04-22T11:52:05;0.40;;;0.40;;
13002;SDS011;66869;57.706;11.922;2023-04-22T11:54:31;0.70;;;0.70;;
13002;SDS011;66869;57.706;11.922;2023-04-22T11:56:56;0.63;;;0.50;;
13002;SDS011;66869;57.706;11.922;2023-04-22T11:59:25;0.50;;;0.50;;
13002;SDS011;66869;57.706;11.922;2023-04-22T12:01:50;0.50;;;0.50;;
13002;SDS011;66869;57.706;11.922;2023-04-22T12:04:16;0.50;;;0.50;;
13002;SDS011;66869;57.706;11.922;2023-04-22T12:06:41;0.60;;;0.60;;
13002;SDS011;66869;57.706;11.922;2023-04-22T12:09:06;0.55;;;0.55;;
13002;SDS011;66869;57.706;11.922;2023-04-22T12:11:32;0.60;;;0.60;;
13002;SDS011;66869;57.706;11.922;2023-04-22T12:14:03;0.50;;;0.50;;
13002;SDS011;66869;57.706;11.922;2023-04-22T12:16:29;0.55;;;0.55;;
13002;SDS011;66869;57.706;11.922;2023-04-22T12:19:03;0.60;;;0.60;;
13002;SDS011;66869;57.706;11.922;2023-04-22T12:21:28;0.85;;;0.60;;
13002;SDS011;66869;57.706;11.922;2023-04-22T12:23:58;2.10;;;0.65;;
13002;SDS011;66869;57.706;11.922;2023-04-22T12:26:23;0.60;;;0.60;;
13002;SDS011;66869;57.706;11.922;2023-04-22T12:28:49;0.70;;;0.70;;
13002;SDS011;66869;57.706;11.922;2023-04-22T12:31:15;0.68;;;0.50;;
13002;SDS011;66869;57.706;11.922;2023-04-22T12:33:41;0.50;;;0.50;;
13002;SDS011;66869;57.706;11.922;2023-04-22T12:36:06;0.55;;;0.55;;
13002;SDS011;66869;57.706;11.922;2023-04-22T12:38:32;0.60;;;0.60;;
13002;SDS011;66869;57.706;11.922;2023-04-22T12:40:57;0.93;;;0.57;;
13002;SDS011;66869;57.706;11.922;2023-04-22T12:43:22;0.60;;;0.52;;
13002;SDS011;66869;57.706;11.922;2023-04-22T12:45:48;0.70;;;0.70;;
13002;SDS011;66869;57.706;11.922;2023-04-22T12:48:13;0.68;;;0.68;;
13002;SDS011;66869;57.706;11.922;2023-04-22T12:50:39;0.60;;;0.60;;
13002;SDS011;66869;57.706;11.922;2023-04-22T12:53:04;0.40;;;0.40;;
13002;SDS011;66869;57.706;11.922;2023-04-22T12:55:30;0.65;;;0.65;;
13002;SDS011;66869;57.706;11.922;2023-04-22T12:57:55;0.65;;;0.65;;
13002;SDS011;66869;57.706;11.922;2023-04-22T13:00:20;0.57;;;0.57;;
13002;SDS011;66869;57.706;11.922;2023-04-22T13:02:46;0.90;;;0.60;;
13002;SDS011;66869;57.706;11.922;2023-04-22T13:05:12;0.60;;;0.60;;
13002;SDS011;66869;57.706;11.922;2023-04-22T13:07:38;1.65;;;0.70;;
13002;SDS011;66869;57.706;11.922;2023-04-22T13:10:04;0.60;;;0.60;;
13002;SDS011;66869;57.706;11.922;2023-04-22T13:12:29;0.57;;;0.57;;
13002;SDS011;66869;57.706;11.922;2023-04-22T13:14:55;0.70;;;0.70;;
13002;SDS011;66869;57.706;11.922;2023-04-22T13:17:20;0.60;;;0.60;;
13002;SDS011;66869;57.706;11.922;2023-04-22T13:19:46;0.68;;;0.63;;
13002;SDS011;66869;57.706;11.922;2023-04-22T13:22:11;1.58;;;0.75;;
13002;SDS011;66869;57.706;11.922;2023-04-22T13:24:37;0.70;;;0.70;;
13002;SDS011;66869;57.706;11.922;2023-04-22T13:27:02;0.52;;;0.52;;
13002;SDS011;66869;57.706;11.922;2023-04-22T13:29:27;0.93;;;0.80;;
13002;SDS011;66869;57.706;11.922;2023-04-22T13:31:52;0.90;;;0.70;;
13002;SDS011;66869;57.706;11.922;2023-04-22T13:34:18;0.77;;;0.60;;
13002;SDS011;66869;57.706;11.922;2023-04-22T13:36:43;1.75;;;0.70;;
13002;SDS011;66869;57.706;11.922;2023-04-22T13:39:08;0.70;;;0.70;;
13002;SDS011;66869;57.706;11.922;2023-04-22T13:41:34;0.70;;;0.70;;
13002;SDS011;66869;57.706;11.922;2023-04-22T13:44:00;0.70;;;0.70;;
13002;SDS011;66869;57.706;11.922;2023-04-22T13:46:25;2.15;;;1.02;;
13002;SDS011;66869;57.706;11.922;2023-04-22T13:48:52;0.70;;;0.70;;
13002;SDS011;66869;57.706;11.922;2023-04-22T13:51:17;0.73;;;0.73;;
13002;SDS011;66869;57.706;11.922;2023-04-22T13:53:42;0.55;;;0.55;;
13002;SDS011;66869;57.706;11.922;2023-04-22T13:56:07;1.70;;;0.70;;
13002;SDS011;66869;57.706;11.922;2023-04-22T13:58:33;0.70;;;0.70;;
13002;SDS011;66869;57.706;11.922;2023-04-22T14:00:58;1.45;;;0.80;;
13002;SDS011;66869;57.706;11.922;2023-04-22T14:03:23;0.70;;;0.70;;
13002;SDS011;66869;57.706;11.922;2023-04-22T14:05:49;0.60;;;0.60;;
13002;SDS011;66869;57.706;11.922;2023-04-22T14:08:14;0.93;;;0.80;;
13002;SDS011;66869;57.706;11.922;2023-04-22T14:10:39;1.08;;;0.80;;
13002;SDS011;66869;57.706;11.922;2023-04-22T14:13:05;0.70;;;0.70;;
13002;SDS011;66869;57.706;11.922;2023-04-22T14:15:30;0.70;;;0.70;;
13002;SDS011;66869;57.706;11.922;2023-04-22T14:17:55;0.70;;;0.70;;
13002;SDS011;66869;57.706;11.922;2023-04-22T14:20:21;0.57;;;0.57;;
13002;SDS011;66869;57.706;11.922;2023-04-22T14:22:49;0.95;;;0.68;;
13002;SDS011;66869;57.706;11.922;2023-04-22T14:25:14;0.88;;;0.80;;
13002;SDS011;66869;57.706;11.922;2023-04-22T14:27:39;1.15;;;0.70;;
13002;SDS011;66869;57.706;11.922;2023-04-22T14:30:05;0.70;;;0.70;;
13002;SDS011;66869;57.706;11.922;2023-04-22T14:32:32;0.80;;;0.77;;
13002;SDS011;66869;57.706;11.922;2023-04-22T14:34:57;0.95;;;0.82;;
13002;SDS011;66869;57.706;11.922;2023-04-22T14:37:22;0.82;;;0.82;;
13002;SDS011;66869;57.706;11.922;2023-04-22T14:39:48;0.70;;;0.70;;
13002;SDS011;66869;57.706;11.922;2023-04-22T14:42:13;0.63;;;0.63;;
13002;SDS011;66869;57.706;11.922;2023-04-22T14:44:40;1.80;;;0.70;;
13002;SDS011;66869;57.706;11.922;2023-04-22T14:47:05;1.02;;;0.80;;
13002;SDS011;66869;57.706;11.922;2023-04-22T14:49:31;0.80;;;0.80;;
13002;SDS011;66869;57.706;11.922;2023-04-22T14:51:56;0.60;;;0.60;;